Time;durP1;ratioP1;P1;durP2;ratioP2;P2;SDS_P1;SDS_P2;PMS_P1;PMS_P2;Temp;Humidity;BMP_temperature;BMP_pressure;BME280_temperature;BME280_humidity;BME280_pressure;Samples;Min_cycle;Max_cycle;Signal;HPM_P1;HPM_P2
2023/05/06 00:01:46;;;;;;;1999.90;999.90;;;13.00;99.90;;;;;;5054800;28;20545;-80
2023/05/06 00:04:14;;;;;;;1999.90;999.90;;;12.90;99.90;;;;;;5054868;28;20032;-73
2023/05/06 00:06:40;;;;;;;1999.90;999.90;;;12.90;99.90;;;;;;5054862;28;20104;-74
2023/05/06 00:09:06;;;;;;;1999.90;999.90;;;12.90;99.90;;;;;;5054422;28;20021;-73
2023/05/06 00:11:32;;;;;;;1999.90;999.90;;;12.90;99.90;;;;;;5054934;28;20071;-73
2023/05/06 00:13:57;;;;;;;1999.90;999.90;;;12.90;99.90;;;;;;5052079;28;20503;-74
2023/05/06 00:16:23;;;;;;;1999.90;999.90;;;12.90;99.90;;;;;;5016200;28;20051;-73
2023/05/06 00:18:48;;;;;;;1999.90;999.90;;;12.80;99.90;;;;;;5034589;28;20034;-73
2023/05/06 00:21:14;;;;;;;1999.90;999.90;;;12.80;99.90;;;;;;5034499;28;20388;-73
2023/05/06 00:23:40;;;;;;;1999.90;999.90;;;12.80;99.90;;;;;;5034825;28;20079;-80
2023/05/06 00:26:06;;;;;;;1999.90;999.90;;;12.80;99.90;;;;;;5034426;28;20111;-80
2023/05/06 00:28:32;;;;;;;1999.90;999.90;;;12.80;99.90;;;;;;5034131;28;20087;-73
2023/05/06 00:30:58;;;;;;;1999.90;999.90;;;12.80;99.90;;;;;;5034079;28;20394;-74
2023/05/06 00:33:25;;;;;;;1999.90;999.90;;;12.80;99.90;;;;;;5016691;28;20059;-74
2023/05/06 00:35:51;;;;;;;1999.90;999.90;;;12.80;99.90;;;;;;5034345;28;20552;-74
2023/05/06 00:38:18;;;;;;;1999.90;999.90;;;12.80;99.90;;;;;;5034199;28;20528;-73
2023/05/06 00:40:44;;;;;;;1999.90;999.90;;;12.90;99.90;;;;;;5033827;28;20024;-79
2023/05/06 00:43:10;;;;;;;1999.90;999.90;;;12.80;99.90;;;;;;5033758;28;20037;-73
2023/05/06 00:45:36;;;;;;;1999.90;999.90;;;12.90;99.90;;;;;;5048313;28;20036;-74
2023/05/06 00:48:03;;;;;;;1999.90;999.90;;;12.90;99.90;;;;;;5053307;28;20029;-80
2023/05/06 00:50:31;;;;;;;1999.90;999.90;;;12.90;99.90;;;;;;5053715;28;20017;-80
2023/05/06 00:52:57;;;;;;;1999.90;999.90;;;12.90;99.90;;;;;;5053522;28;20052;-80
2023/05/06 00:55:24;;;;;;;1999.90;999.90;;;13.00;99.90;;;;;;5035767;28;20419;-74
2023/05/06 00:57:51;;;;;;;1999.90;999.90;;;13.00;99.90;;;;;;5053719;28;20024;-74
2023/05/06 01:00:18;;;;;;;1999.90;999.90;;;13.00;99.90;;;;;;5053780;28;20080;-73
2023/05/06 01:02:43;;;;;;;1999.90;999.90;;;13.00;99.90;;;;;;5053524;28;20040;-73
2023/05/06 01:05:10;;;;;;;1999.90;999.90;;;12.90;99.90;;;;;;5053482;28;20025;-80
2023/05/06 01:07:57;;;;;;;1999.90;999.90;;;12.90;99.90;;;;;;5053285;28;20021;-80
2023/05/06 01:10:25;;;;;;;1999.90;999.90;;;12.80;99.90;;;;;;5053344;28;20017;-73
2023/05/06 01:13:10;;;;;;;1999.90;999.90;;;12.70;99.90;;;;;;5053577;28;20035;-73
2023/05/06 01:15:37;;;;;;;1999.90;999.90;;;12.70;99.90;;;;;;5034489;28;20051;-80
2023/05/06 01:18:08;;;;;;;1999.90;999.90;;;12.70;99.90;;;;;;5052854;28;20028;-73
2023/05/06 01:20:37;;;;;;;1999.90;999.90;;;12.70;99.90;;;;;;5053022;28;20048;-80
2023/05/06 01:23:09;;;;;;;1999.90;999.90;;;12.70;99.90;;;;;;5053455;28;20057;-73
2023/05/06 01:25:35;;;;;;;1999.90;999.90;;;12.70;99.90;;;;;;5053290;28;20027;-73
2023/05/06 01:28:00;;;;;;;1999.90;999.90;;;12.80;99.90;;;;;;5053444;28;20037;-80
2023/05/06 01:30:33;;;;;;;1999.90;999.90;;;12.80;99.90;;;;;;5052940;28;20025;-80
2023/05/06 01:33:15;;;;;;;1999.90;999.90;;;12.70;99.90;;;;;;5053226;28;20039;-80
2023/05/06 01:36:02;;;;;;;1999.90;999.90;;;12.70;99.90;;;;;;5053242;28;20033;-73
2023/05/06 01:38:31;;;;;;;1999.90;999.90;;;12.60;99.90;;;;;;5052828;28;20071;-74
2023/05/06 01:40:57;;;;;;;1999.90;999.90;;;12.60;99.90;;;;;;5052141;28;20031;-74
2023/05/06 01:43:27;;;;;;;1999.90;999.90;;;12.60;99.90;;;;;;5032915;28;20033;-80
2023/05/06 01:45:54;;;;;;;1999.90;999.90;;;12.60;99.90;;;;;;5049449;28;20452;-80
2023/05/06 01:48:30;;;;;;;1999.90;999.90;;;12.60;99.90;;;;;;5052445;28;20423;-73
2023/05/06 01:50:56;;;;;;;1999.90;999.90;;;12.60;99.90;;;;;;5053002;28;20066;-73
2023/05/06 01:53:21;;;;;;;1999.90;999.90;;;12.60;99.90;;;;;;5052128;28;20455;-73
2023/05/06 01:55:47;;;;;;;1999.90;999.90;;;12.60;99.90;;;;;;5052914;28;20063;-80
2023/05/06 01:58:14;;;;;;;1999.90;999.90;;;12.60;99.90;;;;;;5052951;28;20025;-80
2023/05/06 02:00:39;;;;;;;1999.90;999.90;;;12.60;99.90;;;;;;5052882;28;20029;-80
2023/05/06 02:03:05;;;;;;;1999.90;999.90;;;12.60;99.90;;;;;;5052663;28;20029;-73
2023/05/06 02:05:31;;;;;;;1999.90;999.90;;;12.60;99.90;;;;;;5052644;28;20048;-73
2023/05/06 02:07:56;;;;;;;1999.90;999.90;;;12.60;99.90;;;;;;5052459;28;20033;-74
2023/05/06 02:10:22;;;;;;;1999.90;999.90;;;12.50;99.90;;;;;;5052582;28;20400;-79
2023/05/06 02:12:48;;;;;;;1999.90;999.90;;;12.50;99.90;;;;;;5052543;28;20399;-79
2023/05/06 02:15:14;;;;;;;1999.90;999.90;;;12.50;99.90;;;;;;5040345;28;20032;-73
2023/05/06 02:17:40;;;;;;;1999.90;999.90;;;12.50;99.90;;;;;;5031868;28;20052;-73
2023/05/06 02:20:08;;;;;;;1999.90;999.90;;;12.50;99.90;;;;;;5032538;28;20500;-80
2023/05/06 02:22:34;;;;;;;1999.90;999.90;;;12.50;99.90;;;;;;5032580;28;20511;-80
2023/05/06 02:25:00;;;;;;;1999.90;999.90;;;12.50;99.90;;;;;;5032799;28;20025;-80
2023/05/06 02:27:25;;;;;;;1999.90;999.90;;;12.50;99.90;;;;;;5032584;28;20431;-73
2023/05/06 02:29:51;;;;;;;1999.90;999.90;;;12.50;99.90;;;;;;5032931;28;20013;-73
2023/05/06 02:32:17;;;;;;;1999.90;999.90;;;12.50;99.90;;;;;;5032458;28;20088;-73
2023/05/06 02:34:42;;;;;;;1999.90;999.90;;;12.50;99.90;;;;;;5032670;28;20444;-80
2023/05/06 02:37:08;;;;;;;1999.90;999.90;;;12.50;99.90;;;;;;5032583;28;20026;-73
2023/05/06 02:39:33;;;;;;;1999.90;999.90;;;12.50;99.90;;;;;;5032867;28;20366;-80
2023/05/06 02:41:59;;;;;;;1999.90;999.90;;;12.50;99.90;;;;;;5032284;28;20112;-73
2023/05/06 02:44:25;;;;;;;1999.90;999.90;;;12.50;99.90;;;;;;5036811;28;20392;-74
2023/05/06 02:46:50;;;;;;;1999.90;999.90;;;12.40;99.90;;;;;;5052095;28;20036;-79
2023/05/06 02:49:16;;;;;;;1999.90;999.90;;;12.40;99.90;;;;;;5052209;28;20120;-80
2023/05/06 02:51:42;;;;;;;1999.90;999.90;;;12.40;99.90;;;;;;5052473;28;20028;-80
2023/05/06 02:54:07;;;;;;;1999.90;999.90;;;12.40;99.90;;;;;;5052456;28;20032;-74
2023/05/06 02:56:34;;;;;;;1999.90;999.90;;;12.50;99.90;;;;;;5051735;28;20040;-73
2023/05/06 02:59:00;;;;;;;1999.90;999.90;;;12.50;99.90;;;;;;5052125;28;20017;-80
2023/05/06 03:01:26;;;;;;;1999.90;999.90;;;12.50;99.90;;;;;;5033883;28;20404;-80
2023/05/06 03:03:51;;;;;;;1999.90;999.90;;;12.50;99.90;;;;;;5052146;28;20013;-80
2023/05/06 03:06:17;;;;;;;1999.90;999.90;;;12.50;99.90;;;;;;5054774;28;20033;-80
2023/05/06 03:08:43;;;;;;;1999.90;999.90;;;12.50;99.90;;;;;;5055537;28;20029;-73
2023/05/06 03:11:08;;;;;;;1999.90;999.90;;;12.50;99.90;;;;;;5055642;28;20025;-80
2023/05/06 03:13:34;;;;;;;1999.90;999.90;;;12.50;99.90;;;;;;5055923;28;20021;-73
2023/05/06 03:16:01;;;;;;;1999.90;999.90;;;12.50;99.90;;;;;;5036876;28;20073;-80
2023/05/06 03:18:26;;;;;;;1999.90;999.90;;;12.40;99.90;;;;;;5034897;28;20083;-80
2023/05/06 03:20:52;;;;;;;1999.90;999.90;;;12.40;99.90;;;;;;5035636;28;20029;-80
2023/05/06 03:23:17;;;;;;;1999.90;999.90;;;12.40;99.90;;;;;;5035627;28;20057;-80
2023/05/06 03:25:43;;;;;;;1999.90;999.90;;;12.30;99.90;;;;;;5035504;28;20029;-73
2023/05/06 03:28:10;;;;;;;1999.90;999.90;;;12.30;99.90;;;;;;5035547;28;20033;-80
2023/05/06 03:30:39;;;;;;;1999.90;999.90;;;12.30;99.90;;;;;;5035662;28;20455;-73
2023/05/06 03:33:05;;;;;;;1999.90;999.90;;;12.20;99.90;;;;;;5035538;28;20025;-74
2023/05/06 03:35:30;;;;;;;1999.90;999.90;;;12.20;99.90;;;;;;5035533;28;20105;-73
2023/05/06 03:37:56;;;;;;;1999.90;999.90;;;12.20;99.90;;;;;;5035453;28;20059;-80
2023/05/06 03:40:22;;;;;;;1999.90;999.90;;;12.20;99.90;;;;;;5035590;28;20025;-73
2023/05/06 03:42:47;;;;;;;1999.90;999.90;;;12.20;99.90;;;;;;5050806;28;20029;-80
2023/05/06 03:45:13;;;;;;;1999.90;999.90;;;12.20;99.90;;;;;;5055378;28;20515;-80
2023/05/06 03:47:38;;;;;;;1999.90;999.90;;;12.20;99.90;;;;;;5055081;28;20079;-80
2023/05/06 03:50:04;;;;;;;1999.90;999.90;;;12.20;99.90;;;;;;5054825;28;20021;-80
2023/05/06 03:52:30;;;;;;;1999.90;999.90;;;12.30;99.90;;;;;;5036922;28;20499;-80
2023/05/06 03:54:56;;;;;;;1999.90;999.90;;;12.30;99.90;;;;;;5054948;28;20066;-80
2023/05/06 03:57:21;;;;;;;1999.90;999.90;;;12.30;99.90;;;;;;5055094;28;20025;-73
2023/05/06 03:59:47;;;;;;;1999.90;999.90;;;12.30;99.90;;;;;;5054880;28;20017;-74
2023/05/06 04:02:15;;;;;;;1999.90;999.90;;;12.30;99.90;;;;;;5054874;28;20104;-74
2023/05/06 04:04:41;;;;;;;1999.90;999.90;;;12.30;99.90;;;;;;5054859;28;20459;-80
2023/05/06 04:07:06;;;;;;;1999.90;999.90;;;12.20;99.90;;;;;;5054824;28;20033;-80
2023/05/06 04:09:32;;;;;;;1999.90;999.90;;;12.20;99.90;;;;;;5054381;28;20021;-74
2023/05/06 04:11:58;;;;;;;1999.90;999.90;;;12.30;99.90;;;;;;5054546;28;20025;-73
2023/05/06 04:14:23;;;;;;;1999.90;999.90;;;12.30;99.90;;;;;;5049038;28;20014;-74
2023/05/06 04:16:49;;;;;;;1999.90;999.90;;;12.20;99.90;;;;;;5034415;28;20539;-80
2023/05/06 04:19:16;;;;;;;1999.90;999.90;;;12.20;99.90;;;;;;5033647;28;20061;-80
2023/05/06 04:21:41;;;;;;;1999.90;999.90;;;12.20;99.90;;;;;;5034758;28;20072;-74
2023/05/06 04:24:07;;;;;;;1999.90;999.90;;;12.20;99.90;;;;;;5034380;28;20061;-74
2023/05/06 04:26:32;;;;;;;1999.90;999.90;;;12.20;99.90;;;;;;5034385;28;20180;-80
2023/05/06 04:28:58;;;;;;;1999.90;999.90;;;12.20;99.90;;;;;;5034291;28;20013;-80
2023/05/06 04:31:24;;;;;;;1999.90;999.90;;;12.20;99.90;;;;;;5016886;28;20120;-80
2023/05/06 04:33:52;;;;;;;1999.90;999.90;;;12.30;99.90;;;;;;5052988;28;20025;-80
2023/05/06 04:36:17;;;;;;;1999.90;999.90;;;12.30;99.90;;;;;;5054097;28;20545;-80
2023/05/06 04:38:43;;;;;;;1999.90;999.90;;;12.30;99.90;;;;;;5054054;28;20032;-74
2023/05/06 04:41:08;;;;;;;1999.90;999.90;;;12.30;99.90;;;;;;5051782;28;20033;-80
2023/05/06 04:43:34;;;;;;;1999.90;999.90;;;12.40;99.90;;;;;;5034126;28;20052;-80
2023/05/06 04:46:00;;;;;;;1999.90;999.90;;;12.40;99.90;;;;;;5034288;28;20056;-80
2023/05/06 04:48:26;;;;;;;1999.90;999.90;;;12.40;99.90;;;;;;5039804;28;20059;-73
2023/05/06 04:50:51;;;;;;;1999.90;999.90;;;12.40;99.90;;;;;;5053779;28;20118;-74
2023/05/06 04:53:17;;;;;;;1999.90;999.90;;;12.40;99.90;;;;;;5053724;28;20049;-73
2023/05/06 04:55:42;;;;;;;1999.90;999.90;;;12.40;99.90;;;;;;5054123;28;20033;-80
2023/05/06 04:58:08;;;;;;;1999.90;999.90;;;12.40;99.90;;;;;;5053842;28;20037;-80
2023/05/06 05:00:34;;;;;;;1999.90;999.90;;;12.40;99.90;;;;;;5053701;28;20400;-80
2023/05/06 05:03:00;;;;;;;1999.90;999.90;;;12.40;99.90;;;;;;5053447;28;20036;-74
2023/05/06 05:05:27;;;;;;;1999.90;999.90;;;12.50;99.90;;;;;;5053616;28;20500;-73
2023/05/06 05:07:53;;;;;;;1999.90;999.90;;;12.50;99.90;;;;;;5035599;28;20025;-73
2023/05/06 05:10:18;;;;;;;1999.90;999.90;;;12.50;99.90;;;;;;5053540;28;20025;-80
2023/05/06 05:12:45;;;;;;;1999.90;999.90;;;12.50;99.90;;;;;;5053457;28;20031;-79
2023/05/06 05:15:11;;;;;;;1999.90;999.90;;;12.50;99.90;;;;;;5041562;28;20013;-80
2023/05/06 05:17:37;;;;;;;1999.90;999.90;;;12.50;99.90;;;;;;5033756;28;20033;-80
2023/05/06 05:20:04;;;;;;;1999.90;999.90;;;12.50;99.90;;;;;;5032727;28;20045;-74
2023/05/06 05:22:30;;;;;;;1999.90;999.90;;;12.60;99.90;;;;;;5033473;28;20025;-80
2023/05/06 05:24:56;;;;;;;1999.90;999.90;;;12.50;99.90;;;;;;5033220;28;20112;-73
2023/05/06 05:27:22;;;;;;;1999.90;999.90;;;12.60;99.90;;;;;;5032834;28;20404;-80
2023/05/06 05:29:48;;;;;;;1999.90;999.90;;;12.50;99.90;;;;;;5033007;28;20037;-73
2023/05/06 05:32:13;;;;;;;1999.90;999.90;;;12.60;99.90;;;;;;5033584;28;20421;-73
2023/05/06 05:34:39;;;;;;;1999.90;999.90;;;12.70;99.90;;;;;;5033106;28;20562;-73
2023/05/06 05:37:05;;;;;;;1999.90;999.90;;;12.70;99.90;;;;;;5033160;28;20021;-80
2023/05/06 05:39:30;;;;;;;1999.90;999.90;;;12.70;99.90;;;;;;5033237;28;20029;-73
2023/05/06 05:41:56;;;;;;;1999.90;999.90;;;12.70;99.90;;;;;;5032931;28;20025;-74
2023/05/06 05:44:21;;;;;;;1999.90;999.90;;;12.70;99.90;;;;;;5037108;28;20052;-74
2023/05/06 05:46:47;;;;;;;1999.90;999.90;;;12.70;99.90;;;;;;5053191;28;20028;-80
2023/05/06 05:49:13;;;;;;;1999.90;999.90;;;12.80;99.90;;;;;;5052417;28;20033;-73
2023/05/06 05:51:39;;;;;;;1999.90;999.90;;;12.80;99.90;;;;;;5052950;28;20039;-80
2023/05/06 05:54:04;;;;;;;1999.90;999.90;;;12.80;99.90;;;;;;5052675;28;20045;-80
2023/05/06 05:56:30;;;;;;;1999.90;999.90;;;12.80;99.90;;;;;;5053070;28;20092;-73
2023/05/06 05:58:55;;;;;;;1999.90;999.90;;;12.90;99.90;;;;;;5052743;28;20036;-74
2023/05/06 06:01:21;;;;;;;1999.90;999.90;;;12.90;99.90;;;;;;5053021;28;20059;-80
2023/05/06 06:03:47;;;;;;;1999.90;999.90;;;13.00;99.90;;;;;;5052863;28;20033;-80
2023/05/06 06:06:12;;;;;;;1999.90;999.90;;;13.10;99.90;;;;;;5052583;28;20486;-80
2023/05/06 06:08:38;;;;;;;1999.90;999.90;;;13.20;99.90;;;;;;5051779;28;20036;-80
2023/05/06 06:11:04;;;;;;;1999.90;999.90;;;13.20;99.90;;;;;;5052653;28;20033;-74
2023/05/06 06:13:30;;;;;;;1999.90;999.90;;;13.40;99.90;;;;;;5052786;28;20049;-80
2023/05/06 06:15:56;;;;;;;1999.90;999.90;;;13.40;99.90;;;;;;5034455;28;20035;-80
2023/05/06 06:18:23;;;;;;;1999.90;999.90;;;13.50;99.90;;;;;;5032842;28;20529;-80
2023/05/06 06:20:48;;;;;;;1999.90;999.90;;;13.60;99.90;;;;;;5031931;28;20033;-74
2023/05/06 06:23:14;;;;;;;1999.90;999.90;;;13.70;99.90;;;;;;5032662;28;20047;-74
2023/05/06 06:25:39;;;;;;;1999.90;999.90;;;13.80;99.90;;;;;;5032627;28;20510;-80
2023/05/06 06:28:05;;;;;;;1999.90;999.90;;;13.90;99.90;;;;;;5032504;28;20487;-80
2023/05/06 06:30:31;;;;;;;1999.90;999.90;;;13.90;99.90;;;;;;5014666;28;20117;-73
2023/05/06 06:32:57;;;;;;;1999.90;999.90;;;14.10;99.90;;;;;;5032235;28;20033;-80
2023/05/06 06:35:23;;;;;;;1999.90;999.90;;;14.20;99.90;;;;;;5032497;28;20072;-73
2023/05/06 06:37:49;;;;;;;1999.90;999.90;;;14.30;99.90;;;;;;5032589;28;20033;-74
2023/05/06 06:40:15;;;;;;;1999.90;999.90;;;14.50;99.90;;;;;;5034953;28;20079;-80
2023/05/06 06:42:40;;;;;;;1999.90;999.90;;;14.60;99.90;;;;;;5036129;28;20033;-73
2023/05/06 06:45:07;;;;;;;1999.90;999.90;;;14.60;99.90;;;;;;5046452;28;20032;-74
2023/05/06 06:47:34;;;;;;;1999.90;999.90;;;14.80;99.90;;;;;;5055941;28;20143;-74
2023/05/06 06:49:59;;;;;;;1999.90;999.90;;;14.90;99.90;;;;;;5055971;28;20163;-74
2023/05/06 06:52:25;;;;;;;1999.90;999.90;;;15.00;99.90;;;;;;5055862;28;20506;-80
2023/05/06 06:54:51;;;;;;;1999.90;999.90;;;15.10;99.90;;;;;;5055993;28;20028;-74
2023/05/06 06:57:16;;;;;;;1999.90;999.90;;;15.30;99.90;;;;;;5056428;28;20021;-80
2023/05/06 06:59:42;;;;;;;1999.90;999.90;;;15.40;99.90;;;;;;5056299;28;20029;-75
2023/05/06 07:02:07;;;;;;;1999.90;999.90;;;15.60;99.90;;;;;;5055203;28;20060;-80
2023/05/06 07:04:33;;;;;;;1999.90;999.90;;;15.80;99.90;;;;;;5055748;28;20395;-80
2023/05/06 07:06:58;;;;;;;1999.90;999.90;;;15.90;99.90;;;;;;5055775;28;20033;-74
2023/05/06 07:09:24;;;;;;;1999.90;999.90;;;16.00;99.90;;;;;;5055671;28;20052;-80
2023/05/06 07:11:50;;;;;;;1999.90;999.90;;;16.10;99.90;;;;;;5055925;28;20096;-74
2023/05/06 07:14:16;;;;;;;1999.90;999.90;;;16.30;99.90;;;;;;5051277;28;20104;-73
2023/05/06 07:16:41;;;;;;;1999.90;999.90;;;16.40;99.90;;;;;;5035746;28;20489;-73
2023/05/06 07:19:07;;;;;;;1999.90;999.90;;;16.60;99.90;;;;;;5034451;28;20033;-80
2023/05/06 07:21:32;;;;;;;1999.90;999.90;;;16.80;99.90;;;;;;5035024;28;20369;-80
2023/05/06 07:23:58;;;;;;;1999.90;999.90;;;16.90;99.90;;;;;;5035995;28;20036;-81
2023/05/06 07:26:25;;;;;;;1999.90;999.90;;;17.00;99.90;;;;;;5035552;28;20061;-74
2023/05/06 07:28:51;;;;;;;1999.90;999.90;;;17.20;99.90;;;;;;5035507;28;20025;-80
2023/05/06 07:31:19;;;;;;;1999.90;999.90;;;17.50;99.90;;;;;;5035510;28;20093;-81
2023/05/06 07:33:46;;;;;;;1999.90;999.90;;;17.70;99.90;;;;;;5035412;28;20124;-81
2023/05/06 07:36:12;;;;;;;1999.90;999.90;;;17.70;99.90;;;;;;5035577;28;20104;-81
2023/05/06 07:38:37;;;;;;;1999.90;999.90;;;17.90;99.90;;;;;;5035293;28;20127;-80
2023/05/06 07:41:03;;;;;;;1999.90;999.90;;;18.00;99.90;;;;;;5035016;28;20625;-73
2023/05/06 07:43:28;;;;;;;1999.90;999.90;;;18.30;99.90;;;;;;5035337;28;20061;-74
2023/05/06 07:46:01;;;;;;;1999.90;999.90;;;18.80;99.90;;;;;;5051883;28;20384;-80
2023/05/06 07:48:31;;;;;;;1999.90;999.90;;;20.60;99.90;;;;;;5054767;28;20024;-80
2023/05/06 07:50:57;;;;;;;1999.90;999.90;;;22.90;99.90;;;;;;5054318;28;20400;-80
2023/05/06 07:53:22;;;;;;;1999.90;999.90;;;24.40;99.90;;;;;;5054842;28;20053;-74
2023/05/06 07:55:48;;;;;;;1999.90;999.90;;;25.20;99.90;;;;;;5054923;28;20021;-74
2023/05/06 07:58:14;;;;;;;1999.90;999.90;;;25.40;99.90;;;;;;5055178;28;20029;-80
2023/05/06 08:00:39;;;;;;;1999.90;999.90;;;25.80;99.90;;;;;;5054884;28;20527;-80
2023/05/06 08:03:05;;;;;;;1999.90;999.90;;;25.80;99.90;;;;;;5055123;28;20553;-80
2023/05/06 08:05:31;;;;;;;1999.90;999.90;;;26.70;99.90;;;;;;5054612;28;20025;-75
2023/05/06 08:07:56;;;;;;;1999.90;999.90;;;27.00;99.90;;;;;;5036607;28;20407;-74
2023/05/06 08:10:22;;;;;;;1999.90;999.90;;;26.80;99.90;;;;;;5054853;28;20020;-80
2023/05/06 08:12:48;;;;;;;1999.90;999.90;;;26.90;99.90;;;;;;5055122;28;20392;-79
2023/05/06 08:15:13;;;;;;;1999.90;999.90;;;26.20;99.90;;;;;;5054571;28;20471;-74
2023/05/06 08:17:39;;;;;;;1999.90;999.90;;;25.80;99.90;;;;;;5054725;28;20064;-79
2023/05/06 08:20:06;;;;;;;1999.90;999.90;;;25.60;99.90;;;;;;5054447;28;20025;-79
2023/05/06 08:22:31;;;;;;;1999.90;999.90;;;25.50;99.90;;;;;;5053646;28;20021;-79
2023/05/06 08:24:57;;;;;;;1999.90;999.90;;;25.90;99.90;;;;;;5054296;28;20396;-80
2023/05/06 08:27:23;;;;;;;1999.90;999.90;;;25.90;99.90;;;;;;5054795;28;20484;-80
2023/05/06 08:29:49;;;;;;;1999.90;999.90;;;25.40;99.90;;;;;;5054548;28;20049;-79
2023/05/06 08:32:14;;;;;;;1999.90;999.90;;;25.10;99.90;;;;;;5054133;28;20557;-79
2023/05/06 08:34:40;;;;;;;1999.90;999.90;;;25.20;99.90;;;;;;5054128;28;20029;-74
2023/05/06 08:37:06;;;;;;;1999.90;999.90;;;25.40;99.90;;;;;;5054154;28;20484;-80
2023/05/06 08:39:31;;;;;;;1999.90;999.90;;;26.10;99.90;;;;;;5054554;28;20025;-79
2023/05/06 08:42:00;;;;;;;1999.90;999.90;;;27.00;99.90;;;;;;5044998;28;20457;-74
2023/05/06 08:44:26;;;;;;;1999.90;999.90;;;27.70;99.90;;;;;;5038519;28;20476;-74
2023/05/06 08:46:52;;;;;;;1999.90;999.90;;;29.00;99.90;;;;;;5053946;28;20091;-74
2023/05/06 08:49:18;;;;;;;1999.90;999.90;;;29.50;99.90;;;;;;5053852;28;20029;-72
2023/05/06 08:51:44;;;;;;;1999.90;999.90;;;30.20;99.90;;;;;;5054074;28;20021;-78
2023/05/06 08:54:11;;;;;;;1999.90;999.90;;;29.90;99.90;;;;;;5053654;28;20045;-72
2023/05/06 08:56:41;;;;;;;1999.90;999.90;;;30.70;99.90;;;;;;5053426;28;20025;-78
2023/05/06 08:59:08;;;;;;;1999.90;999.90;;;30.60;99.50;;;;;;5053850;28;20557;-72
2023/05/06 09:01:34;;;;;;;1999.90;999.90;;;29.40;99.90;;;;;;5053797;28;20021;-72
2023/05/06 09:04:02;;;;;;;1999.90;999.90;;;28.90;99.90;;;;;;5053878;28;20491;-77
2023/05/06 09:06:28;;;;;;;1999.90;999.90;;;28.00;99.90;;;;;;5053704;28;20044;-77
2023/05/06 09:08:54;;;;;;;1999.90;999.90;;;27.80;99.90;;;;;;5053166;28;20025;-72
2023/05/06 09:11:20;;;;;;;1999.90;999.90;;;28.60;99.90;;;;;;5053742;28;20029;-74
2023/05/06 09:13:46;;;;;;;1999.90;999.90;;;27.90;99.90;;;;;;5053416;28;20023;-75
2023/05/06 09:16:27;;;;;;;1999.90;999.90;;;28.00;99.90;;;;;;5053667;28;20078;-80
2023/05/06 09:18:52;;;;;;;1999.90;999.90;;;28.10;99.90;;;;;;5053417;28;20020;-80
2023/05/06 09:21:18;;;;;;;1999.90;999.90;;;28.00;99.90;;;;;;5053132;28;20502;-80
2023/05/06 09:23:44;;;;;;;1999.90;999.90;;;27.90;99.90;;;;;;5053037;28;20099;-75
2023/05/06 09:26:10;;;;;;;1999.90;999.90;;;27.00;99.90;;;;;;5053446;28;20120;-74
2023/05/06 09:28:35;;;;;;;1999.90;999.90;;;27.00;99.90;;;;;;5053396;28;20440;-80
2023/05/06 09:31:01;;;;;;;1999.90;999.90;;;27.30;99.90;;;;;;5035285;28;20082;-80
2023/05/06 09:33:27;;;;;;;1999.90;999.90;;;26.50;99.90;;;;;;5052994;28;20549;-80
2023/05/06 09:35:52;;;;;;;1999.90;999.90;;;26.50;99.90;;;;;;5053190;28;20036;-80
2023/05/06 09:38:18;;;;;;;1999.90;999.90;;;26.50;99.90;;;;;;5052902;28;20033;-74
2023/05/06 09:40:43;;;;;;;1999.90;999.90;;;25.80;99.90;;;;;;5053022;28;20595;-74
2023/05/06 09:43:09;;;;;;;1999.90;999.90;;;25.00;99.90;;;;;;5033965;28;20077;-80
2023/05/06 09:45:35;;;;;;;1999.90;999.90;;;24.80;99.90;;;;;;5047115;28;20104;-79
2023/05/06 09:48:01;;;;;;;1999.90;999.90;;;24.40;99.90;;;;;;5052607;28;20109;-79
2023/05/06 09:50:27;;;;;;;1999.90;999.90;;;23.80;99.90;;;;;;5052769;28;20056;-74
2023/05/06 09:52:54;;;;;;;1999.90;999.90;;;23.50;99.90;;;;;;5052726;28;20041;-79
2023/05/06 09:55:22;;;;;;;1999.90;999.90;;;23.50;99.90;;;;;;5052761;28;20108;-79
2023/05/06 09:57:48;;;;;;;1999.90;999.90;;;23.50;99.90;;;;;;5034966;28;20082;-74
2023/05/06 10:00:15;;;;;;;1999.90;999.90;;;23.90;99.90;;;;;;5052701;28;20484;-79
2023/05/06 10:02:42;;;;;;;1999.90;999.90;;;23.90;99.90;;;;;;5052178;28;20458;-73
2023/05/06 10:05:10;;;;;;;1999.90;999.90;;;24.00;99.90;;;;;;5052694;28;20020;-74
2023/05/06 10:07:35;;;;;;;1999.90;999.90;;;24.30;99.90;;;;;;5052426;28;20017;-79
2023/05/06 10:10:03;;;;;;;1999.90;999.90;;;24.60;99.90;;;;;;5052768;28;20100;-79
2023/05/06 10:12:29;;;;;;;1999.90;999.90;;;25.10;99.90;;;;;;5052394;28;20013;-80
2023/05/06 10:14:55;;;;;;;1999.90;999.90;;;26.60;99.90;;;;;;5056752;28;20032;-74
2023/05/06 10:17:24;;;;;;;1999.90;999.90;;;26.70;99.90;;;;;;5059433;28;20021;-74
2023/05/06 10:19:55;;;;;;;1999.90;999.90;;;25.80;99.90;;;;;;5058477;28;20064;-80
2023/05/06 10:22:27;;;;;;;1999.90;999.90;;;25.90;99.90;;;;;;5058544;28;20496;-79
2023/05/06 10:25:11;;;;;;;1999.90;999.90;;;26.00;99.90;;;;;;5059130;28;20029;-80
2023/05/06 10:27:42;;;;;;;1999.90;999.90;;;25.80;99.90;;;;;;5059397;28;20272;-80
2023/05/06 10:30:09;;;;;;;1999.90;999.90;;;26.50;99.90;;;;;;5059647;28;20091;-74
2023/05/06 10:32:40;;;;;;;1999.90;999.90;;;25.80;99.90;;;;;;5059320;28;20033;-80
2023/05/06 10:35:30;;;;;;;1999.90;999.90;;;25.00;99.90;;;;;;5058881;28;20549;-80
2023/05/06 10:37:56;;;;;;;1999.90;999.90;;;24.80;99.90;;;;;;5058389;28;20119;-80
2023/05/06 10:40:22;;;;;;;1999.90;999.90;;;26.40;99.90;;;;;;5059346;28;20032;-80
2023/05/06 10:42:50;;;;;;;1999.90;999.90;;;28.20;99.90;;;;;;5042714;28;20034;-75
2023/05/06 10:45:15;;;;;;;1999.90;999.90;;;29.60;99.90;;;;;;5050562;28;20024;-80
2023/05/06 10:47:56;;;;;;;1999.90;999.90;;;29.20;99.70;;;;;;5058788;28;20025;-80
2023/05/06 10:50:22;;;;;;;1999.90;999.90;;;28.30;99.80;;;;;;5038974;28;20025;-74
2023/05/06 10:52:56;;;;;;;1999.90;999.90;;;28.20;99.90;;;;;;5009912;28;20572;-80
2023/05/06 10:55:27;;;;;;;1999.90;999.90;;;27.70;99.90;;;;;;4999508;28;20026;-74
2023/05/06 10:58:01;;;;;;;1999.90;999.90;;;28.10;99.90;;;;;;4999725;28;20027;-80
2023/05/06 11:00:31;;;;;;;1999.90;999.90;;;28.30;99.90;;;;;;4999439;28;20049;-80
2023/05/06 11:03:00;;;;;;;1999.90;999.90;;;28.10;99.90;;;;;;4999646;28;20037;-80
2023/05/06 11:05:27;;;;;;;1999.90;999.90;;;28.70;99.90;;;;;;4999695;28;20050;-80
2023/05/06 11:08:07;;;;;;;1999.90;999.90;;;29.00;99.90;;;;;;5003575;28;20022;-74
2023/05/06 11:10:33;;;;;;;1999.90;999.90;;;28.20;99.60;;;;;;5019436;28;20044;-79
2023/05/06 11:13:28;;;;;;;1999.90;999.90;;;28.00;99.90;;;;;;5018964;28;20419;-80
2023/05/06 11:15:55;;;;;;;1999.90;999.90;;;29.30;99.30;;;;;;5019287;28;20076;-78
2023/05/06 11:18:28;;;;;;;1999.90;999.90;;;30.20;99.60;;;;;;5019168;28;20030;-79
2023/05/06 11:20:59;;;;;;;1999.90;999.90;;;29.40;99.20;;;;;;5018972;28;20072;-74
2023/05/06 11:23:51;;;;;;;1999.90;999.90;;;30.10;98.20;;;;;;5018294;28;20057;-73
2023/05/06 11:26:17;;;;;;;1999.90;999.90;;;30.40;98.30;;;;;;5014531;28;20034;-73
2023/05/06 11:28:44;;;;;;;1999.90;999.90;;;30.20;99.30;;;;;;5015721;28;20061;-77
2023/05/06 11:31:11;;;;;;;1999.90;999.90;;;28.90;99.20;;;;;;5015884;28;20057;-74
2023/05/06 11:33:43;;;;;;;1999.90;999.90;;;27.80;99.90;;;;;;5014600;28;20508;-79
2023/05/06 11:36:15;;;;;;;1999.90;999.90;;;28.00;99.90;;;;;;5015712;28;20068;-80
2023/05/06 11:38:44;;;;;;;1999.90;999.90;;;29.50;99.90;;;;;;5015661;28;20021;-78
2023/05/06 11:41:11;;;;;;;1999.90;999.90;;;29.80;99.90;;;;;;5013305;28;20484;-78
2023/05/06 11:43:37;;;;;;;1999.90;999.90;;;30.20;99.00;;;;;;4996145;28;20433;-78
2023/05/06 11:46:03;;;;;;;1999.90;999.90;;;30.70;99.90;;;;;;5013484;28;20033;-73
2023/05/06 11:48:29;;;;;;;1999.90;999.90;;;30.90;98.40;;;;;;5014972;28;20519;-78
2023/05/06 11:50:54;;;;;;;1999.90;999.90;;;30.50;99.00;;;;;;5015298;28;20021;-73
2023/05/06 11:53:22;;;;;;;1999.90;999.90;;;30.40;98.00;;;;;;5040018;28;20052;-73
2023/05/06 11:55:51;;;;;;;1999.90;999.90;;;30.50;97.00;;;;;;5055085;28;20048;-74
2023/05/06 11:58:25;;;;;;;1999.90;999.90;;;30.60;97.00;;;;;;5055175;28;20025;-78